Time;durP1;ratioP1;P1;durP2;ratioP2;P2;SDS_P1;SDS_P2;PMS_P1;PMS_P2;Temp;Humidity;BMP_temperature;BMP_pressure;BME280_temperature;BME280_humidity;BME280_pressure;Samples;Min_cycle;Max_cycle;Signal;HPM_P1;HPM_P2
2022/09/22 00:01:04;;;;;;;5.47;2.15;;;9.60;99.90;;;;;;5077601;28;20270;-70
2022/09/22 00:03:32;;;;;;;4.13;2.10;;;9.50;99.90;;;;;;5078293;28;20036;-69
2022/09/22 00:06:07;;;;;;;4.45;2.20;;;9.50;99.90;;;;;;5049980;28;20126;-70
2022/09/22 00:08:35;;;;;;;9.05;2.63;;;9.50;99.90;;;;;;5075299;28;20125;-70
2022/09/22 00:11:07;;;;;;;4.68;2.60;;;9.50;99.90;;;;;;5063323;28;20225;-70
2022/09/22 00:13:35;;;;;;;4.95;2.22;;;9.40;99.90;;;;;;5077017;28;20044;-69
2022/09/22 00:16:06;;;;;;;4.45;2.10;;;9.40;99.90;;;;;;5066933;28;20431;-70
2022/09/22 00:18:31;;;;;;;5.50;2.58;;;9.40;99.90;;;;;;5074917;28;20390;-70
2022/09/22 00:20:58;;;;;;;4.67;2.53;;;9.40;99.90;;;;;;5064767;28;20135;-70
2022/09/22 00:23:26;;;;;;;3.67;2.05;;;9.30;99.90;;;;;;5079722;28;20036;-70
2022/09/22 00:25:51;;;;;;;4.97;2.20;;;9.30;99.90;;;;;;5061794;28;20048;-70
2022/09/22 00:28:19;;;;;;;3.47;1.80;;;9.30;99.90;;;;;;5062677;28;20036;-73
2022/09/22 00:30:44;;;;;;;3.97;2.05;;;9.30;99.90;;;;;;5081819;28;20786;-70
2022/09/22 00:33:10;;;;;;;4.07;2.20;;;9.20;99.90;;;;;;5060219;28;20128;-69
2022/09/22 00:35:37;;;;;;;4.55;2.08;;;9.20;99.90;;;;;;5059756;28;20356;-70
2022/09/22 00:38:06;;;;;;;3.25;1.80;;;9.30;99.90;;;;;;5062080;28;20587;-76
2022/09/22 00:40:34;;;;;;;3.45;1.88;;;9.20;99.90;;;;;;5079891;28;20055;-70
2022/09/22 00:43:18;;;;;;;7.40;2.38;;;9.30;99.90;;;;;;5053429;28;20036;-70
2022/09/22 00:45:51;;;;;;;7.05;2.70;;;9.20;99.90;;;;;;5058343;28;20040;-70
2022/09/22 00:48:20;;;;;;;4.53;2.08;;;9.10;99.90;;;;;;5070078;28;20036;-70
2022/09/22 00:50:47;;;;;;;5.18;1.88;;;9.10;99.90;;;;;;5071447;28;20040;-70
2022/09/22 00:53:15;;;;;;;3.95;2.00;;;9.10;99.90;;;;;;5074135;28;20097;-69
2022/09/22 00:55:49;;;;;;;4.68;2.63;;;9.10;99.90;;;;;;5058789;28;20044;-70
2022/09/22 00:58:33;;;;;;;5.57;2.20;;;9.10;99.90;;;;;;5076299;28;20514;-70
2022/09/22 01:00:59;;;;;;;3.88;1.85;;;9.00;99.90;;;;;;5066961;28;20475;-70
2022/09/22 01:03:28;;;;;;;3.97;2.17;;;9.10;99.90;;;;;;5079372;28;20035;-70
2022/09/22 01:05:57;;;;;;;4.38;2.45;;;9.00;99.90;;;;;;5077347;28;20515;-70
2022/09/22 01:08:24;;;;;;;5.13;1.92;;;9.00;99.90;;;;;;5057599;28;20401;-70
2022/09/22 01:10:53;;;;;;;5.75;2.45;;;9.00;99.90;;;;;;5074311;28;20534;-70
2022/09/22 01:13:39;;;;;;;3.80;2.10;;;9.00;99.90;;;;;;5080195;28;20078;-70
2022/09/22 01:16:31;;;;;;;5.03;1.92;;;8.90;99.90;;;;;;5079062;28;20042;-70
2022/09/22 01:19:13;;;;;;;9.02;2.45;;;8.90;99.90;;;;;;5072142;28;20044;-70
2022/09/22 01:22:11;;;;;;;5.25;2.90;;;8.90;99.90;;;;;;5078652;28;20051;-70
2022/09/22 01:25:01;;;;;;;5.00;2.13;;;8.90;99.90;;;;;;5038986;28;20094;-70
2022/09/22 01:27:47;;;;;;;4.22;2.20;;;8.90;99.90;;;;;;5055212;28;20048;-70
2022/09/22 01:30:23;;;;;;;4.30;2.30;;;8.80;99.90;;;;;;5076386;28;20051;-70
2022/09/22 01:33:07;;;;;;;4.50;2.50;;;8.80;99.90;;;;;;5071624;28;20113;-70
2022/09/22 01:36:09;;;;;;;5.70;2.30;;;8.80;99.90;;;;;;5055290;28;20134;-70
2022/09/22 01:38:48;;;;;;;4.45;2.38;;;8.80;99.90;;;;;;5066618;28;20557;-70
2022/09/22 01:41:38;;;;;;;3.65;2.03;;;8.80;99.90;;;;;;5074344;28;20144;-70
2022/09/22 01:44:13;;;;;;;4.38;2.05;;;8.70;99.90;;;;;;5057734;28;20032;-70
2022/09/22 01:46:51;;;;;;;7.50;2.10;;;8.70;99.90;;;;;;5073379;28;20047;-70
2022/09/22 01:49:19;;;;;;;3.47;2.03;;;8.70;99.90;;;;;;5049716;28;20032;-71
2022/09/22 01:51:53;;;;;;;3.55;1.95;;;8.60;99.90;;;;;;5075063;28;20054;-70
2022/09/22 01:54:30;;;;;;;3.35;2.03;;;8.60;99.90;;;;;;5078425;28;20080;-70
2022/09/22 01:57:13;;;;;;;4.80;2.10;;;8.60;99.90;;;;;;5081544;28;20040;-70
2022/09/22 01:59:41;;;;;;;3.72;2.22;;;8.60;99.90;;;;;;5090754;22;20380;-70
2022/09/22 02:02:14;;;;;;;3.13;2.10;;;8.60;99.90;;;;;;5045301;28;20268;-71
2022/09/22 02:04:46;;;;;;;4.10;2.13;;;8.60;99.90;;;;;;5058926;28;20076;-70
2022/09/22 02:07:17;;;;;;;3.63;2.15;;;8.60;99.90;;;;;;5041564;28;20110;-70
2022/09/22 02:09:46;;;;;;;3.83;1.83;;;8.50;99.90;;;;;;5058183;28;20056;-71
2022/09/22 02:12:11;;;;;;;4.53;2.05;;;8.50;99.90;;;;;;5041617;28;20048;-71
2022/09/22 02:14:37;;;;;;;4.07;1.83;;;8.50;99.90;;;;;;5050507;28;20112;-72
2022/09/22 02:17:03;;;;;;;4.50;2.17;;;8.50;99.90;;;;;;5055554;28;20040;-70
2022/09/22 02:19:36;;;;;;;4.60;2.13;;;8.50;99.90;;;;;;5060029;28;20155;-71
2022/09/22 02:22:04;;;;;;;4.97;2.15;;;8.50;99.90;;;;;;5039867;28;20362;-71
2022/09/22 02:24:44;;;;;;;4.70;1.85;;;8.40;99.90;;;;;;5042473;28;20464;-71
2022/09/22 02:27:25;;;;;;;4.57;2.17;;;8.40;99.90;;;;;;5025187;28;20486;-71
2022/09/22 02:30:01;;;;;;;3.42;1.90;;;8.40;99.90;;;;;;5039640;28;20105;-71
2022/09/22 02:32:28;;;;;;;3.10;1.80;;;8.40;99.90;;;;;;5054720;28;20056;-70
2022/09/22 02:34:54;;;;;;;3.95;2.22;;;8.40;99.90;;;;;;5042908;28;20045;-72
2022/09/22 02:37:43;;;;;;;7.60;2.47;;;8.40;99.90;;;;;;5047192;28;20482;-70
2022/09/22 02:40:23;;;;;;;4.43;2.20;;;8.30;99.90;;;;;;5044500;28;20079;-70
2022/09/22 02:43:00;;;;;;;6.53;2.10;;;8.30;99.90;;;;;;5034991;28;20583;-71
2022/09/22 02:45:32;;;;;;;4.78;2.05;;;8.30;99.90;;;;;;5041312;28;20047;-70
2022/09/22 02:48:08;;;;;;;3.75;2.17;;;8.30;99.90;;;;;;5056407;28;20076;-70
2022/09/22 02:50:35;;;;;;;4.07;2.08;;;8.20;99.90;;;;;;5059315;28;20044;-71
2022/09/22 02:53:09;;;;;;;5.43;2.05;;;8.30;99.90;;;;;;5060813;28;20045;-70
2022/09/22 02:55:35;;;;;;;3.75;1.95;;;8.30;99.90;;;;;;5061314;28;20351;-71
2022/09/22 02:58:01;;;;;;;4.30;2.13;;;8.20;99.90;;;;;;5062085;28;20032;-70
2022/09/22 03:00:26;;;;;;;3.03;1.60;;;8.20;99.90;;;;;;5043014;28;20053;-70
2022/09/22 03:02:52;;;;;;;3.67;2.10;;;8.20;99.90;;;;;;5053185;28;20047;-71
2022/09/22 03:05:18;;;;;;;5.83;2.27;;;8.20;99.90;;;;;;5043193;28;20432;-71
2022/09/22 03:07:44;;;;;;;5.30;2.20;;;8.20;99.90;;;;;;5046489;28;20067;-71
2022/09/22 03:10:10;;;;;;;4.32;1.88;;;8.20;99.90;;;;;;5060337;28;20037;-70
2022/09/22 03:12:41;;;;;;;3.33;2.22;;;8.20;99.90;;;;;;5042624;28;20049;-71
2022/09/22 03:15:10;;;;;;;3.63;1.88;;;8.10;99.90;;;;;;5057879;28;20145;-71
2022/09/22 03:17:37;;;;;;;5.57;1.90;;;8.10;99.90;;;;;;5022029;28;20084;-70
2022/09/22 03:20:04;;;;;;;;;;;8.10;99.90;;;;;;5063984;28;20071;-71
2022/09/22 03:22:29;;;;;;;7.55;1.90;;;8.10;99.90;;;;;;5056480;28;20043;-70
2022/09/22 03:24:55;;;;;;;3.70;1.83;;;8.00;99.90;;;;;;5061034;28;20462;-71
2022/09/22 03:27:21;;;;;;;3.23;1.80;;;8.00;99.90;;;;;;5059440;28;20047;-70
2022/09/22 03:29:46;;;;;;;6.10;2.33;;;8.00;99.90;;;;;;5062744;28;20232;-70
2022/09/22 03:32:12;;;;;;;3.57;1.57;;;8.00;99.90;;;;;;5043463;28;20158;-70
2022/09/22 03:34:37;;;;;;;6.03;1.83;;;8.00;99.90;;;;;;5060967;28;20044;-72
2022/09/22 03:37:03;;;;;;;6.37;1.90;;;8.00;99.90;;;;;;5052340;28;20033;-72
2022/09/22 03:39:29;;;;;;;6.43;2.13;;;8.00;99.90;;;;;;5041404;28;20044;-71
2022/09/22 03:41:55;;;;;;;3.80;1.90;;;7.90;99.90;;;;;;5047868;28;20711;-72
2022/09/22 03:44:20;;;;;;;5.00;1.73;;;8.00;99.90;;;;;;5039155;28;20089;-70
2022/09/22 03:46:46;;;;;;;2.67;1.53;;;7.90;99.90;;;;;;5060689;28;20127;-70
2022/09/22 03:49:12;;;;;;;4.30;1.93;;;7.90;99.90;;;;;;5056397;28;20590;-70
2022/09/22 03:51:37;;;;;;;6.57;2.00;;;8.00;99.90;;;;;;5045329;28;20049;-70
2022/09/22 03:54:03;;;;;;;3.67;1.73;;;7.90;99.90;;;;;;5062218;28;20059;-70
2022/09/22 03:56:29;;;;;;;4.00;1.77;;;7.90;99.90;;;;;;5065521;28;20147;-70
2022/09/22 03:58:54;;;;;;;4.93;1.60;;;7.90;99.90;;;;;;5047922;28;20360;-70
2022/09/22 04:01:20;;;;;;;6.17;1.80;;;7.90;99.90;;;;;;5066590;28;20281;-70
2022/09/22 04:03:46;;;;;;;3.27;1.70;;;7.90;99.90;;;;;;5065699;28;20477;-70
2022/09/22 04:06:11;;;;;;;3.83;1.83;;;7.90;99.90;;;;;;5065097;28;20036;-70
2022/09/22 04:08:37;;;;;;;6.57;1.60;;;7.90;99.90;;;;;;5063736;28;20043;-70
2022/09/22 04:11:04;;;;;;;3.75;2.00;;;7.90;99.90;;;;;;5040028;28;20053;-70
2022/09/22 04:13:30;;;;;;;3.13;1.58;;;7.90;99.90;;;;;;5064967;28;20082;-70
2022/09/22 04:15:56;;;;;;;3.07;1.70;;;7.90;99.90;;;;;;5047859;28;20040;-70
2022/09/22 04:18:21;;;;;;;4.43;1.40;;;7.90;99.90;;;;;;5041676;28;20069;-70
2022/09/22 04:20:47;;;;;;;6.87;1.60;;;7.90;99.90;;;;;;5048557;28;20128;-70
2022/09/22 04:23:16;;;;;;;3.60;1.83;;;8.00;99.90;;;;;;5065483;28;20123;-70
2022/09/22 04:25:42;;;;;;;4.10;1.70;;;7.90;99.90;;;;;;5067733;28;20039;-70
2022/09/22 04:28:07;;;;;;;4.77;2.00;;;8.00;99.90;;;;;;5056659;28;20036;-70
2022/09/22 04:30:33;;;;;;;5.07;1.70;;;7.90;99.90;;;;;;5066232;28;20390;-70
2022/09/22 04:33:00;;;;;;;4.60;1.80;;;8.00;99.90;;;;;;5052447;28;20082;-70
2022/09/22 04:35:29;;;;;;;4.22;1.90;;;8.00;99.90;;;;;;5041576;28;20052;-70
2022/09/22 04:37:55;;;;;;;5.35;1.98;;;8.00;99.90;;;;;;5062755;28;20095;-70
2022/09/22 04:40:21;;;;;;;;;;;8.00;99.90;;;;;;5065605;28;20048;-70
2022/09/22 04:42:48;;;;;;;4.72;2.10;;;7.90;99.90;;;;;;5059864;28;20011;-70
2022/09/22 04:45:15;;;;;;;3.30;1.48;;;7.90;99.90;;;;;;5065310;28;20044;-70
2022/09/22 04:47:49;;;;;;;3.72;1.70;;;8.00;99.90;;;;;;5064890;28;20142;-70
2022/09/22 04:50:15;;;;;;;4.68;1.58;;;7.90;99.90;;;;;;5056840;28;20047;-70
2022/09/22 04:52:46;;;;;;;;;;;8.00;99.90;;;;;;5065943;28;20465;-70
2022/09/22 04:55:13;;;;;;;5.03;1.60;;;7.90;99.90;;;;;;5065492;28;19924;-70
2022/09/22 04:57:39;;;;;;;3.38;1.60;;;7.90;99.90;;;;;;5064542;28;20310;-70
2022/09/22 05:00:05;;;;;;;3.30;1.87;;;7.90;99.90;;;;;;5064883;28;20036;-70
2022/09/22 05:02:30;;;;;;;3.67;2.03;;;7.90;99.90;;;;;;5061742;28;20488;-70
2022/09/22 05:04:56;;;;;;;3.20;1.63;;;7.90;99.90;;;;;;5044905;28;20047;-70
2022/09/22 05:07:22;;;;;;;3.00;1.83;;;7.90;99.90;;;;;;5061685;28;20394;-70
2022/09/22 05:09:48;;;;;;;3.92;1.77;;;7.90;99.90;;;;;;5064429;28;20390;-70
2022/09/22 05:12:13;;;;;;;4.00;2.03;;;7.90;99.90;;;;;;5064964;28;20189;-69
2022/09/22 05:14:39;;;;;;;4.03;1.77;;;7.90;99.90;;;;;;5063076;28;20045;-70
2022/09/22 05:17:05;;;;;;;4.20;2.00;;;7.80;99.90;;;;;;5063912;28;20090;-70
2022/09/22 05:19:31;;;;;;;4.33;1.60;;;7.80;99.90;;;;;;5051822;28;20111;-70
2022/09/22 05:21:56;;;;;;;5.43;2.08;;;7.80;99.90;;;;;;5064293;28;20706;-70
2022/09/22 05:24:22;;;;;;;6.87;2.00;;;7.80;99.90;;;;;;5063705;28;20144;-70
2022/09/22 05:26:48;;;;;;;3.13;1.90;;;7.70;99.90;;;;;;5067641;28;20044;-70
2022/09/22 05:29:15;;;;;;;3.30;1.90;;;7.70;99.90;;;;;;5063833;28;20040;-70
2022/09/22 05:31:41;;;;;;;5.07;2.20;;;7.70;99.90;;;;;;5046708;28;20055;-70
2022/09/22 05:34:06;;;;;;;3.60;2.00;;;7.70;99.90;;;;;;5065804;28;20112;-70
2022/09/22 05:36:32;;;;;;;6.83;2.10;;;7.70;99.90;;;;;;5046084;28;20521;-70
2022/09/22 05:38:57;;;;;;;4.37;1.77;;;7.70;99.90;;;;;;5062072;28;20028;-70
2022/09/22 05:41:23;;;;;;;3.30;1.90;;;7.70;99.90;;;;;;5063696;28;20072;-70
2022/09/22 05:43:49;;;;;;;4.60;1.80;;;7.60;99.90;;;;;;5064428;28;20039;-72
2022/09/22 05:46:14;;;;;;;4.20;2.10;;;7.70;99.90;;;;;;5045451;28;20041;-71
2022/09/22 05:48:40;;;;;;;4.93;2.10;;;7.70;99.90;;;;;;5063084;28;20048;-70
2022/09/22 05:51:06;;;;;;;5.53;2.07;;;7.70;99.90;;;;;;5062581;28;20112;-70
2022/09/22 05:53:31;;;;;;;3.93;2.07;;;7.70;99.90;;;;;;5065098;28;20044;-70
2022/09/22 05:55:58;;;;;;;5.20;2.27;;;7.70;99.90;;;;;;5064932;28;20123;-71
2022/09/22 05:58:24;;;;;;;5.93;2.35;;;7.70;99.90;;;;;;5064897;28;20059;-71
2022/09/22 06:00:50;;;;;;;4.60;2.40;;;7.80;99.90;;;;;;5064339;28;20358;-72
2022/09/22 06:03:16;;;;;;;4.53;2.10;;;7.80;99.90;;;;;;5055899;28;20339;-72
2022/09/22 06:05:43;;;;;;;7.60;2.45;;;7.80;99.90;;;;;;5045959;28;20214;-72
2022/09/22 06:08:09;;;;;;;5.90;2.30;;;7.90;99.90;;;;;;5066301;28;20044;-71
2022/09/22 06:10:37;;;;;;;4.80;2.27;;;7.90;99.90;;;;;;5055555;28;20052;-70
2022/09/22 06:13:05;;;;;;;3.88;2.40;;;8.00;99.90;;;;;;5043614;28;20047;-71
2022/09/22 06:15:34;;;;;;;7.93;2.88;;;8.00;99.90;;;;;;5064385;28;20067;-71
2022/09/22 06:18:01;;;;;;;6.07;2.80;;;7.90;99.90;;;;;;5064363;28;20040;-70
2022/09/22 06:20:28;;;;;;;4.95;2.53;;;8.00;99.90;;;;;;5050123;28;20407;-69
2022/09/22 06:22:55;;;;;;;3.53;2.40;;;8.10;99.90;;;;;;5066167;28;20378;-68
2022/09/22 06:25:22;;;;;;;5.05;2.78;;;8.10;99.90;;;;;;5038045;28;20044;-69
2022/09/22 06:28:01;;;;;;;6.53;2.65;;;8.20;99.90;;;;;;5066436;28;20110;-70
2022/09/22 06:30:27;;;;;;;4.75;2.17;;;8.20;99.90;;;;;;5064222;28;20220;-69
2022/09/22 06:32:54;;;;;;;5.70;2.97;;;8.30;99.90;;;;;;5065635;28;20032;-70
2022/09/22 06:35:19;;;;;;;4.90;2.63;;;8.30;99.90;;;;;;5060815;28;20447;-72
2022/09/22 06:37:47;;;;;;;5.60;2.60;;;8.40;99.90;;;;;;5064755;28;20064;-73
2022/09/22 06:40:13;;;;;;;5.10;2.95;;;8.40;99.90;;;;;;5051567;28;20045;-71
2022/09/22 06:42:41;;;;;;;6.50;2.67;;;8.50;99.90;;;;;;5066290;28;20082;-73
2022/09/22 06:45:07;;;;;;;5.50;2.78;;;8.50;99.90;;;;;;5061839;28;20044;-72
2022/09/22 06:47:33;;;;;;;8.73;3.20;;;8.60;99.90;;;;;;5048505;28;20073;-70
2022/09/22 06:50:01;;;;;;;5.10;2.97;;;8.60;99.90;;;;;;5050836;28;20066;-69
2022/09/22 06:52:27;;;;;;;7.55;2.80;;;8.70;99.90;;;;;;5069579;28;20052;-70
2022/09/22 06:54:59;;;;;;;7.40;2.90;;;8.70;99.90;;;;;;5069081;28;20106;-69
2022/09/22 06:57:31;;;;;;;5.57;2.75;;;8.80;99.90;;;;;;5066153;28;20139;-70
2022/09/22 07:00:01;;;;;;;4.63;3.33;;;8.80;99.90;;;;;;5043007;28;20045;-69
2022/09/22 07:02:27;;;;;;;4.95;2.67;;;8.90;99.90;;;;;;5068625;28;20040;-70
2022/09/22 07:04:57;;;;;;;5.65;2.88;;;8.90;99.90;;;;;;5059467;28;20059;-71
2022/09/22 07:07:27;;;;;;;3.97;2.47;;;9.00;99.90;;;;;;5045605;28;20055;-71
2022/09/22 07:09:54;;;;;;;4.95;3.03;;;9.10;99.90;;;;;;5049820;28;20040;-71
2022/09/22 07:12:21;;;;;;;3.90;2.30;;;9.20;99.90;;;;;;5053545;28;20140;-71
2022/09/22 07:14:48;;;;;;;7.15;2.92;;;9.20;99.90;;;;;;5044439;28;20462;-70
2022/09/22 07:17:17;;;;;;;10.05;3.13;;;9.30;99.90;;;;;;5041043;28;20079;-71
2022/09/22 07:19:45;;;;;;;7.10;3.42;;;9.40;99.90;;;;;;5064956;28;20041;-70
2022/09/22 07:22:13;;;;;;;5.00;2.70;;;9.50;99.90;;;;;;5069927;28;20116;-71
2022/09/22 07:24:39;;;;;;;4.10;2.58;;;9.50;99.90;;;;;;5064796;28;20310;-72
2022/09/22 07:27:05;;;;;;;3.80;2.40;;;9.60;99.90;;;;;;5048723;28;20419;-71
2022/09/22 07:29:32;;;;;;;5.07;2.55;;;9.60;99.90;;;;;;5064685;28;20079;-71
2022/09/22 07:31:58;;;;;;;4.95;2.33;;;9.70;99.90;;;;;;5053182;28;20068;-71
2022/09/22 07:34:25;;;;;;;6.38;2.55;;;9.80;99.90;;;;;;5061300;28;20230;-71
2022/09/22 07:36:51;;;;;;;3.97;2.55;;;9.90;99.90;;;;;;5064010;28;20032;-71
2022/09/22 07:39:16;;;;;;;7.78;4.15;;;10.00;99.90;;;;;;5047225;28;20393;-72
2022/09/22 07:41:42;;;;;;;5.43;2.43;;;10.00;99.90;;;;;;5062140;28;20409;-71
2022/09/22 07:46:54;;;;;;;8.52;2.67;;;10.20;99.90;;;;;;5059120;28;20036;-74
2022/09/22 07:49:21;;;;;;;4.95;2.38;;;10.40;99.90;;;;;;5036841;28;20127;-70
2022/09/22 07:51:53;;;;;;;3.90;2.33;;;10.40;99.90;;;;;;5062884;28;20090;-70
2022/09/22 07:54:19;;;;;;;4.35;2.28;;;10.50;99.90;;;;;;5065850;28;20069;-73
2022/09/22 07:56:45;;;;;;;3.38;2.10;;;10.60;99.90;;;;;;5058319;28;20123;-73
2022/09/22 07:59:14;;;;;;;4.00;2.63;;;10.70;99.90;;;;;;5058402;22;20143;-70
2022/09/22 08:01:43;;;;;;;5.05;2.80;;;10.70;99.90;;;;;;5040930;28;20036;-69
2022/09/22 08:04:15;;;;;;;7.68;2.72;;;10.90;99.90;;;;;;5059180;28;20119;-69
2022/09/22 08:06:42;;;;;;;8.55;2.70;;;11.00;99.90;;;;;;5056024;28;20070;-69
2022/09/22 08:09:09;;;;;;;5.55;2.13;;;11.10;99.90;;;;;;5050246;28;20076;-69
2022/09/22 08:11:35;;;;;;;6.20;2.20;;;11.20;99.90;;;;;;5051251;28;20391;-70
2022/09/22 08:14:04;;;;;;;8.40;2.08;;;11.30;99.90;;;;;;5047464;28;20047;-70
2022/09/22 08:16:32;;;;;;;3.67;1.73;;;11.40;99.90;;;;;;5065747;28;20036;-70
2022/09/22 08:19:01;;;;;;;4.03;2.00;;;11.50;99.90;;;;;;5045939;28;20044;-70
2022/09/22 08:21:34;;;;;;;5.57;2.30;;;11.60;99.90;;;;;;5067769;28;20572;-69
2022/09/22 08:24:04;;;;;;;5.05;2.03;;;11.70;99.90;;;;;;5045345;28;20116;-69
2022/09/22 08:26:30;;;;;;;3.65;1.60;;;11.80;99.90;;;;;;5065296;28;20494;-69
2022/09/22 08:28:56;;;;;;;3.10;2.05;;;11.90;99.90;;;;;;5047112;28;20051;-69
2022/09/22 08:31:25;;;;;;;5.18;2.10;;;12.00;99.90;;;;;;5047060;28;20530;-69
2022/09/22 08:33:52;;;;;;;4.50;1.58;;;12.00;99.90;;;;;;5061615;28;20041;-69
2022/09/22 08:36:19;;;;;;;6.13;2.33;;;12.20;99.90;;;;;;5057140;28;20070;-69
2022/09/22 08:38:48;;;;;;;3.17;1.83;;;12.30;99.90;;;;;;5042118;28;20037;-70
2022/09/22 08:41:55;;;;;;;3.15;1.55;;;12.40;99.90;;;;;;5059197;28;20110;-70
2022/09/22 08:44:41;;;;;;;6.40;1.60;;;12.50;99.90;;;;;;5063133;28;20067;-69
2022/09/22 08:47:15;;;;;;;4.20;1.90;;;12.60;99.90;;;;;;5042053;28;20033;-70
2022/09/22 08:52:51;;;;;;;4.40;1.80;;;12.80;99.90;;;;;;5056377;28;20049;-69
2022/09/22 08:55:24;;;;;;;3.60;1.52;;;13.00;99.90;;;;;;5035776;28;20119;-69
2022/09/22 08:57:55;;;;;;;3.88;1.83;;;13.10;99.90;;;;;;5065675;28;20405;-69
2022/09/22 09:00:22;;;;;;;6.22;1.67;;;13.20;99.90;;;;;;5074533;28;20044;-69
2022/09/22 09:03:34;;;;;;;4.18;1.48;;;13.30;99.90;;;;;;5049033;28;20044;-68
2022/09/22 09:06:31;;;;;;;6.03;2.25;;;13.50;99.90;;;;;;4987655;28;20486;-70
2022/09/22 09:09:03;;;;;;;3.03;1.40;;;13.60;99.90;;;;;;5054463;28;20047;-69
2022/09/22 09:11:37;;;;;;;2.30;1.20;;;13.70;99.90;;;;;;5054193;28;20410;-69
2022/09/22 09:14:18;;;;;;;5.20;1.73;;;13.80;99.90;;;;;;5049345;28;20414;-69
2022/09/22 09:16:48;;;;;;;3.47;1.40;;;13.90;99.90;;;;;;5066077;28;20097;-69
2022/09/22 09:19:14;;;;;;;5.40;1.50;;;14.00;99.90;;;;;;5045183;28;20482;-69
2022/09/22 09:21:53;;;;;;;4.32;2.13;;;14.10;99.90;;;;;;5047747;28;20525;-69
2022/09/22 09:24:33;;;;;;;3.60;1.67;;;14.20;99.90;;;;;;5067689;28;20517;-70
2022/09/22 09:27:12;;;;;;;2.15;1.30;;;14.30;99.90;;;;;;5038609;28;20452;-70
2022/09/22 09:30:01;;;;;;;4.95;1.65;;;14.40;99.90;;;;;;5057138;28;20699;-69
2022/09/22 09:32:47;;;;;;;2.55;1.38;;;14.50;99.90;;;;;;5044096;28;20041;-70
2022/09/22 09:35:21;;;;;;;4.05;1.67;;;14.60;99.90;;;;;;5059268;28;20041;-70
2022/09/22 09:37:47;;;;;;;2.65;1.55;;;14.70;99.90;;;;;;5066886;28;20041;-70
2022/09/22 09:40:17;;;;;;;2.63;1.50;;;14.90;99.90;;;;;;5054203;28;20383;-70
2022/09/22 09:42:46;;;;;;;9.82;1.85;;;14.90;99.90;;;;;;5066909;28;20040;-69
2022/09/22 09:45:17;;;;;;;3.60;1.42;;;15.00;99.90;;;;;;5065225;28;20039;-70
2022/09/22 09:47:52;;;;;;;4.38;1.98;;;15.10;99.90;;;;;;5061775;28;20038;-69
2022/09/22 09:50:18;;;;;;;4.82;2.20;;;15.20;99.90;;;;;;5049506;28;20048;-70
2022/09/22 09:52:44;;;;;;;5.50;2.25;;;15.30;99.90;;;;;;5068543;28;20147;-69
2022/09/22 09:55:25;;;;;;;4.80;2.20;;;15.40;99.90;;;;;;5067246;28;20119;-70
2022/09/22 09:58:09;;;;;;;6.72;2.10;;;15.50;99.90;;;;;;5071168;28;20047;-70
2022/09/22 10:00:56;;;;;;;5.18;2.10;;;15.60;99.90;;;;;;5051395;28;20040;-70
2022/09/22 10:03:31;;;;;;;3.65;2.30;;;15.70;99.90;;;;;;5051120;28;20086;-69
2022/09/22 10:06:06;;;;;;;5.15;2.28;;;15.80;99.90;;;;;;5073044;28;20066;-70
2022/09/22 10:08:44;;;;;;;5.78;2.25;;;15.90;99.90;;;;;;5070828;28;20052;-70
2022/09/22 10:11:13;;;;;;;4.05;2.30;;;16.00;99.90;;;;;;5035711;28;20123;-70
2022/09/22 10:13:40;;;;;;;5.70;2.25;;;16.10;99.90;;;;;;5051132;28;20110;-70
2022/09/22 10:16:20;;;;;;;3.60;2.40;;;16.20;99.90;;;;;;5073779;28;20037;-70
2022/09/22 10:18:47;;;;;;;3.92;2.20;;;16.30;99.90;;;;;;5045933;28;20040;-69
2022/09/22 10:21:16;;;;;;;6.75;2.28;;;16.40;99.90;;;;;;5067381;28;20068;-70
2022/09/22 10:23:53;;;;;;;3.97;2.03;;;16.40;99.90;;;;;;5050019;28;20044;-69
2022/09/22 10:26:25;;;;;;;6.45;2.50;;;16.50;99.90;;;;;;5053361;28;20063;-69
2022/09/22 10:29:12;;;;;;;4.05;2.20;;;16.60;99.90;;;;;;5057453;28;20119;-69
2022/09/22 10:31:39;;;;;;;5.07;1.98;;;16.70;99.90;;;;;;5046352;28;20135;-69
2022/09/22 10:34:26;;;;;;;4.53;2.13;;;16.70;99.90;;;;;;5043423;28;20048;-70
2022/09/22 10:36:52;;;;;;;4.43;2.40;;;16.80;99.90;;;;;;5039817;28;20215;-69
2022/09/22 10:39:19;;;;;;;5.45;2.55;;;16.80;99.90;;;;;;5050210;28;20293;-70
2022/09/22 10:41:47;;;;;;;3.80;2.53;;;16.90;99.90;;;;;;5069467;28;20101;-69
2022/09/22 10:44:17;;;;;;;4.53;2.70;;;16.90;99.90;;;;;;5072178;28;20036;-70
2022/09/22 10:46:57;;;;;;;6.60;3.00;;;17.00;99.90;;;;;;5039197;28;20037;-70
2022/09/22 10:49:35;;;;;;;7.57;3.65;;;17.00;99.90;;;;;;5048335;28;20300;-70
2022/09/22 10:52:23;;;;;;;5.45;3.60;;;17.10;99.90;;;;;;5066190;28;20036;-70
2022/09/22 10:55:19;;;;;;;7.97;3.33;;;17.20;99.90;;;;;;5037241;28;20048;-70
2022/09/22 10:58:13;;;;;;;5.85;3.70;;;17.30;99.90;;;;;;5048100;28;20072;-69
2022/09/22 11:00:40;;;;;;;6.65;3.53;;;17.30;99.90;;;;;;5070228;28;20040;-70
2022/09/22 11:03:18;;;;;;;6.10;2.88;;;17.30;99.90;;;;;;5050390;28;20043;-69
2022/09/22 11:12:15;;;;;;;4.32;2.22;;;17.30;99.90;;;;;;5048004;28;20130;-70
2022/09/22 11:15:02;;;;;;;5.85;2.25;;;17.30;99.90;;;;;;5050526;28;20048;-70
2022/09/22 11:17:52;;;;;;;4.32;2.42;;;17.30;99.90;;;;;;5027382;28;20049;-69
2022/09/22 11:20:40;;;;;;;4.43;2.53;;;17.30;99.90;;;;;;5064446;28;20044;-70
2022/09/22 11:23:25;;;;;;;4.70;2.88;;;17.40;99.90;;;;;;5049348;28;20036;-69
2022/09/22 11:26:03;;;;;;;4.32;2.50;;;17.40;99.90;;;;;;5059684;28;20144;-70
2022/09/22 11:28:42;;;;;;;5.57;2.55;;;17.50;99.90;;;;;;5053234;28;20151;-69
2022/09/22 11:31:36;;;;;;;5.55;2.80;;;17.50;99.90;;;;;;5038230;28;20402;-70
2022/09/22 11:34:25;;;;;;;6.13;2.65;;;17.50;99.90;;;;;;5060317;28;20106;-70
2022/09/22 11:37:24;;;;;;;2.83;2.33;;;17.60;99.90;;;;;;5048738;28;20171;-69
2022/09/22 11:40:10;;;;;;;4.45;2.38;;;17.60;99.90;;;;;;5066828;28;20059;-70
2022/09/22 11:42:44;;;;;;;5.03;2.63;;;17.70;99.90;;;;;;5069682;28;20449;-70
2022/09/22 11:45:36;;;;;;;3.15;1.85;;;17.70;99.90;;;;;;5047236;28;20147;-70
2022/09/22 11:48:16;;;;;;;4.30;2.55;;;17.80;99.90;;;;;;5042231;28;20043;-70
2022/09/22 11:50:56;;;;;;;6.07;3.22;;;17.90;99.90;;;;;;5051891;28;20113;-70
2022/09/22 11:53:36;;;;;;;6.28;2.83;;;17.90;99.90;;;;;;5046752;28;20555;-70
2022/09/22 11:56:27;;;;;;;5.78;2.85;;;17.90;99.90;;;;;;5062765;28;20052;-70
2022/09/22 11:58:56;;;;;;;5.95;2.85;;;17.80;99.90;;;;;;5034532;28;20040;-70
2022/09/22 12:01:28;;;;;;;3.75;2.45;;;17.80;99.90;;;;;;5050516;28;20036;-70
2022/09/22 12:04:12;;;;;;;6.40;2.60;;;18.00;99.90;;;;;;5072342;28;20135;-70
2022/09/22 12:06:43;;;;;;;4.57;2.85;;;18.00;99.90;;;;;;5067728;28;20119;-70
2022/09/22 12:09:32;;;;;;;4.47;2.42;;;18.00;99.90;;;;;;5062944;28;20048;-69
2022/09/22 12:11:58;;;;;;;5.18;2.80;;;18.10;99.90;;;;;;5069488;28;20043;-70
2022/09/22 12:14:26;;;;;;;6.95;2.15;;;18.20;99.90;;;;;;5046001;28;20045;-70
2022/09/22 12:17:11;;;;;;;3.63;2.38;;;18.30;99.90;;;;;;5070305;28;20494;-70
2022/09/22 12:19:44;;;;;;;4.90;2.88;;;18.40;99.90;;;;;;5044084;28;20051;-70
2022/09/22 12:22:24;;;;;;;5.55;2.67;;;18.40;99.90;;;;;;5055628;28;20151;-70
2022/09/22 12:24:50;;;;;;;6.30;2.85;;;18.40;99.90;;;;;;5052932;28;20406;-70
2022/09/22 12:27:22;;;;;;;6.38;2.60;;;18.40;99.90;;;;;;5047624;28;20140;-70
2022/09/22 12:30:21;;;;;;;5.22;1.83;;;18.40;99.90;;;;;;5073783;28;20040;-69
2022/09/22 12:32:49;;;;;;;5.03;2.20;;;18.60;99.90;;;;;;5036317;28;20509;-70
2022/09/22 12:35:33;;;;;;;6.07;2.72;;;18.60;99.90;;;;;;5067482;28;20217;-70
2022/09/22 12:38:03;;;;;;;6.68;2.55;;;18.60;99.20;;;;;;5040997;28;20041;-70
2022/09/22 12:40:36;;;;;;;4.03;2.58;;;18.60;99.60;;;;;;5045853;28;20512;-70
2022/09/22 12:43:02;;;;;;;6.65;3.15;;;18.60;99.90;;;;;;5047020;28;20406;-69
2022/09/22 12:45:33;;;;;;;5.13;2.33;;;18.60;99.00;;;;;;5032539;28;20032;-70
2022/09/22 12:48:05;;;;;;;6.07;2.90;;;18.50;98.70;;;;;;5061010;28;20045;-70
2022/09/22 12:50:42;;;;;;;4.32;2.58;;;18.40;99.80;;;;;;5053238;28;20056;-70
2022/09/22 12:53:27;;;;;;;4.35;2.42;;;18.50;99.90;;;;;;5031063;28;20044;-71
2022/09/22 12:55:57;;;;;;;8.00;3.00;;;18.70;99.80;;;;;;5043468;28;20397;-71
2022/09/22 12:58:22;;;;;;;4.68;2.67;;;18.90;99.30;;;;;;5072951;28;20048;-71
2022/09/22 13:00:52;;;;;;;4.40;2.17;;;19.10;99.60;;;;;;5072322;28;20405;-70
2022/09/22 13:03:24;;;;;;;6.00;2.58;;;19.30;99.40;;;;;;5078772;28;20036;-70
2022/09/22 13:05:54;;;;;;;5.15;2.72;;;19.40;98.80;;;;;;5068453;28;20039;-70
2022/09/22 13:08:29;;;;;;;6.88;2.58;;;19.40;96.50;;;;;;5048857;28;20498;-70
2022/09/22 13:11:04;;;;;;;3.95;2.47;;;19.20;96.10;;;;;;5070250;28;20040;-70
2022/09/22 13:13:35;;;;;;;3.65;2.45;;;19.10;96.30;;;;;;5069945;28;20040;-70
2022/09/22 13:16:03;;;;;;;5.22;2.70;;;19.00;97.30;;;;;;5046707;28;20044;-70
2022/09/22 13:18:29;;;;;;;5.47;2.17;;;19.10;97.90;;;;;;5027687;28;20650;-70
2022/09/22 13:20:56;;;;;;;4.90;3.45;;;19.10;98.40;;;;;;5067893;28;20043;-70
2022/09/22 13:23:22;;;;;;;6.07;2.92;;;19.20;97.70;;;;;;5071415;28;20044;-70
2022/09/22 13:25:50;;;;;;;5.05;2.30;;;19.40;97.30;;;;;;5068856;28;21178;-70
2022/09/22 13:28:19;;;;;;;7.20;2.55;;;19.50;97.00;;;;;;5070807;28;20043;-71